Decoded Metar for KBFM (MOBILE in AL, USA) (IATA:BFM) | Meteo·Mobile Aviation Weather
aviador You're here:

KBFM Decoded Metar

MOBILE in AL, USA
Report Time2018-09-25 13:53:00
UTC Time2018-09-25 14:54:00
Flight Rules vfr VFR
Wind160° at 04 kt
W.Decomp.*RWY 18: 3.8 kt HW 1.3 kt LCW
RWY 14: 3.7 kt HW 1.4 kt RCW
W.Rank160° ranks 1
Current wind is below 160° avg. (7.5)
Visibility9999 m
Phenomena:Light Rain
Clouds:Few 009 Hf
Broken 030 Hf
Expected CloudBase > 400 ft AGL from Temp-Dew spread
Ceiling3,000 ft
Temp25°C (ISA +10)
Dew Point24°C (94% RH)
QNH1019 hPa
Density Alt1,427 ft
Elevation66 ft
Report Wrong Elevation
Raw Report
METAR KBFM 251353Z 16004KT 9SM -RA FEW009 BKN030 25/24 A3009 RMK AO2
LTG DSNT S AND SW SLP190 P0009 T02500244=

Extra information for KBFM:More info

Metar Taf Metar & Taf Last 4 Metars F.Rules Stats Wind Profile Meteogram Temp Stats Airport Information Weather charts Add Link Nearby VenuesMetar ALERT Operation Metar Decoded Social comments

AIRNAV info for KBFM